Time;durP1;ratioP1;P1;durP2;ratioP2;P2;SDS_P1;SDS_P2;PMS_P1;PMS_P2;Temp;Humidity;BMP_temperature;BMP_pressure;BME280_temperature;BME280_humidity;BME280_pressure;Samples;Min_cycle;Max_cycle;Signal;HPM_P1;HPM_P2
2022/10/14 00:01:18;;;;;;;0.13;0.13;;;10.90;99.90;;;;;;5014337;28;20029;-77
2022/10/14 00:03:44;;;;;;;0.13;0.13;;;10.90;99.90;;;;;;4997239;28;20030;-77
2022/10/14 00:06:15;;;;;;;0.10;0.10;;;10.90;99.90;;;;;;5014963;28;20038;-77
2022/10/14 00:08:46;;;;;;;0.17;0.17;;;10.80;99.90;;;;;;5015864;28;20021;-77
2022/10/14 00:11:21;;;;;;;0.10;0.10;;;10.70;99.90;;;;;;5015254;28;20033;-77
2022/10/14 00:13:50;;;;;;;0.10;0.10;;;10.70;99.90;;;;;;5016607;28;20022;-77
2022/10/14 00:16:26;;;;;;;0.40;0.40;;;10.70;99.90;;;;;;5015749;28;20017;-77
2022/10/14 00:18:52;;;;;;;0.10;0.10;;;10.60;99.90;;;;;;5002195;28;20026;-78
2022/10/14 00:21:21;;;;;;;0.63;0.63;;;10.70;99.90;;;;;;5018151;28;20070;-77
2022/10/14 00:23:47;;;;;;;0.10;0.10;;;10.60;99.90;;;;;;5018791;28;20040;-78
2022/10/14 00:26:37;;;;;;;0.10;0.10;;;10.60;99.90;;;;;;5002596;28;20105;-78
2022/10/14 00:29:06;;;;;;;0.10;0.10;;;10.60;99.90;;;;;;5014689;28;20116;-78
2022/10/14 00:31:32;;;;;;;0.10;0.10;;;10.60;99.90;;;;;;4995524;28;20022;-78
2022/10/14 00:33:58;;;;;;;0.10;0.10;;;10.60;99.90;;;;;;5012015;28;20049;-78
2022/10/14 00:36:25;;;;;;;0.10;0.10;;;12.00;99.90;;;;;;5011906;28;20411;-77
2022/10/14 00:38:53;;;;;;;4.28;3.95;;;10.50;99.90;;;;;;5011381;28;20049;-77
2022/10/14 00:41:29;;;;;;;0.10;0.10;;;10.50;99.90;;;;;;4993687;28;20312;-78
2022/10/14 00:44:25;;;;;;;0.10;0.10;;;10.50;99.90;;;;;;5011418;28;20026;-78
2022/10/14 00:46:52;;;;;;;0.10;0.10;;;10.50;99.90;;;;;;5010586;28;20042;-77
2022/10/14 00:49:30;;;;;;;0.10;0.10;;;10.40;99.90;;;;;;5010874;28;20055;-77
2022/10/14 00:52:01;;;;;;;0.10;0.10;;;10.30;99.90;;;;;;5008283;28;20030;-77
2022/10/14 00:54:37;;;;;;;0.15;0.15;;;10.30;99.90;;;;;;4992434;28;20335;-78
2022/10/14 00:57:07;;;;;;;0.20;0.20;;;10.20;99.90;;;;;;5009517;28;20153;-77
2022/10/14 00:59:33;;;;;;;0.10;0.10;;;10.20;99.90;;;;;;5009220;28;20022;-77
2022/10/14 01:01:59;;;;;;;0.10;0.10;;;10.20;99.90;;;;;;5009582;28;20029;-77
2022/10/14 01:04:26;;;;;;;0.10;0.10;;;10.20;99.90;;;;;;5009499;28;20157;-77
2022/10/14 01:07:18;;;;;;;0.10;0.10;;;10.20;99.90;;;;;;5009626;28;20125;-78
2022/10/14 01:09:49;;;;;;;0.10;0.10;;;10.10;99.90;;;;;;4997244;28;20030;-77
2022/10/14 01:12:33;;;;;;;0.10;0.10;;;10.10;99.90;;;;;;4997749;28;20260;-80
2022/10/14 01:15:30;;;;;;;0.00;0.00;;;10.10;99.90;;;;;;5015352;28;20489;-79
2022/10/14 01:18:33;;;;;;;0.10;0.10;;;10.10;99.90;;;;;;5014947;28;20026;-77
2022/10/14 01:21:20;;;;;;;0.10;0.10;;;10.00;99.90;;;;;;4985431;28;20048;-76
2022/10/14 01:23:52;;;;;;;0.10;0.10;;;10.00;99.90;;;;;;5015478;28;20393;-76
2022/10/14 01:26:20;;;;;;;0.10;0.10;;;9.90;99.90;;;;;;4997649;28;20401;-77
2022/10/14 01:29:17;;;;;;;0.10;0.10;;;9.90;99.90;;;;;;5015146;28;20065;-77
2022/10/14 01:31:47;;;;;;;0.25;0.25;;;9.90;99.90;;;;;;4933738;29;20099;-77
2022/10/14 01:34:22;;;;;;;0.52;0.52;;;9.90;99.90;;;;;;4932957;29;20035;-77
2022/10/14 01:36:55;;;;;;;0.13;0.13;;;9.90;99.90;;;;;;4933102;29;20050;-77
2022/10/14 01:39:26;;;;;;;0.10;0.10;;;9.90;99.90;;;;;;4916042;29;20247;-77
2022/10/14 01:42:07;;;;;;;0.10;0.10;;;9.90;99.90;;;;;;4917449;28;20035;-77
2022/10/14 01:44:39;;;;;;;0.20;0.20;;;9.90;99.90;;;;;;4931953;29;20086;-77
2022/10/14 01:47:07;;;;;;;0.10;0.10;;;9.80;99.90;;;;;;4931038;29;20159;-77
2022/10/14 01:49:42;;;;;;;0.20;0.20;;;9.90;99.90;;;;;;4930980;29;20032;-77
2022/10/14 01:52:21;;;;;;;0.10;0.10;;;10.00;99.90;;;;;;4914319;29;20455;-77
2022/10/14 01:54:50;;;;;;;0.20;0.20;;;9.80;99.90;;;;;;4915137;29;20028;-77
2022/10/14 01:57:24;;;;;;;0.10;0.10;;;9.70;99.90;;;;;;4914634;29;20285;-78
2022/10/14 01:59:52;;;;;;;4.25;4.05;;;9.70;99.90;;;;;;4930344;29;20024;-77
2022/10/14 02:02:18;;;;;;;0.00;0.00;;;9.70;99.90;;;;;;4930844;29;20050;-77
2022/10/14 02:04:44;;;;;;;0.10;0.10;;;9.70;99.90;;;;;;4929455;29;20245;-77
2022/10/14 02:07:15;;;;;;;0.20;0.20;;;9.70;99.90;;;;;;4927877;29;20479;-77
2022/10/14 02:10:03;;;;;;;0.10;0.10;;;9.60;99.90;;;;;;5003077;28;20111;-77
2022/10/14 02:13:14;;;;;;;0.10;0.10;;;9.70;99.90;;;;;;5009475;28;20018;-77
2022/10/14 02:15:49;;;;;;;0.10;0.10;;;9.60;99.90;;;;;;4991317;28;20096;-77
2022/10/14 02:18:27;;;;;;;0.20;0.20;;;9.60;99.90;;;;;;4989780;28;20030;-77
2022/10/14 02:21:22;;;;;;;0.10;0.10;;;9.50;99.90;;;;;;4990251;28;20489;-77
2022/10/14 02:24:05;;;;;;;0.10;0.10;;;9.50;99.90;;;;;;4990778;28;20050;-77
2022/10/14 02:26:32;;;;;;;0.00;0.00;;;9.50;99.90;;;;;;4990418;28;20073;-77
2022/10/14 02:29:00;;;;;;;1.00;1.00;;;9.50;99.90;;;;;;5009410;28;20029;-77
2022/10/14 02:31:27;;;;;;;0.05;0.05;;;9.60;99.90;;;;;;5009845;28;20105;-77
2022/10/14 02:33:57;;;;;;;0.10;0.10;;;9.50;99.90;;;;;;5014332;28;20283;-77
2022/10/14 02:36:25;;;;;;;0.10;0.10;;;9.50;99.90;;;;;;5014851;28;20025;-77
2022/10/14 02:38:53;;;;;;;0.20;0.20;;;9.50;99.90;;;;;;4997274;28;20180;-77
2022/10/14 02:41:23;;;;;;;0.08;0.08;;;9.50;99.90;;;;;;5014595;28;20032;-77
2022/10/14 02:43:49;;;;;;;0.00;0.00;;;9.40;99.90;;;;;;4996232;28;20030;-77
2022/10/14 02:46:20;;;;;;;8.20;7.53;;;9.50;99.90;;;;;;4995953;28;20049;-77
2022/10/14 02:48:46;;;;;;;0.10;0.10;;;9.50;99.90;;;;;;5013466;28;20105;-77
2022/10/14 02:51:11;;;;;;;0.10;0.10;;;9.50;99.90;;;;;;4994805;28;20396;-77
2022/10/14 02:53:37;;;;;;;0.10;0.10;;;9.40;99.90;;;;;;5013191;28;20092;-78
2022/10/14 02:56:05;;;;;;;0.43;0.43;;;9.40;99.90;;;;;;5012636;28;20227;-77
2022/10/14 02:58:31;;;;;;;0.10;0.10;;;9.40;99.90;;;;;;4995541;28;20532;-77
2022/10/14 03:00:56;;;;;;;0.13;0.13;;;10.50;99.90;;;;;;5013451;28;20588;-77
2022/10/14 03:03:22;;;;;;;0.10;0.10;;;9.30;99.90;;;;;;5011977;28;20060;-77
2022/10/14 03:05:48;;;;;;;0.10;0.10;;;9.30;99.90;;;;;;4994829;28;20113;-77
2022/10/14 03:08:14;;;;;;;0.10;0.10;;;9.30;99.90;;;;;;5012358;28;20044;-77
2022/10/14 03:10:39;;;;;;;0.03;0.03;;;9.30;99.90;;;;;;5010803;28;20073;-78
2022/10/14 03:13:05;;;;;;;0.10;0.10;;;9.30;99.90;;;;;;5012125;28;20021;-77
2022/10/14 03:15:31;;;;;;;0.70;0.70;;;9.30;99.90;;;;;;5013138;28;20022;-77
2022/10/14 03:17:57;;;;;;;0.10;0.10;;;9.60;99.90;;;;;;5010270;28;20080;-77
2022/10/14 03:20:22;;;;;;;0.10;0.10;;;9.20;99.90;;;;;;5010584;28;20795;-77
2022/10/14 03:22:50;;;;;;;0.20;0.20;;;9.20;99.90;;;;;;5009788;28;20193;-77
2022/10/14 03:25:16;;;;;;;0.10;0.10;;;9.20;99.90;;;;;;5009225;28;20022;-77
2022/10/14 03:27:42;;;;;;;0.10;0.10;;;9.20;99.90;;;;;;5009289;28;20048;-78
2022/10/14 03:30:08;;;;;;;0.03;0.03;;;9.20;99.90;;;;;;4990793;28;20274;-77
2022/10/14 03:32:34;;;;;;;0.10;0.10;;;9.20;99.90;;;;;;5009346;28;20388;-77
2022/10/14 03:35:01;;;;;;;0.20;0.20;;;9.20;99.90;;;;;;5008291;28;20608;-77
2022/10/14 03:37:27;;;;;;;0.43;0.43;;;9.20;99.90;;;;;;5008239;28;20493;-77
2022/10/14 03:39:53;;;;;;;0.10;0.10;;;9.20;99.90;;;;;;5009027;28;20037;-77
2022/10/14 03:42:18;;;;;;;0.08;0.08;;;9.10;99.90;;;;;;5010020;28;20076;-77
2022/10/14 03:44:46;;;;;;;0.17;0.17;;;9.20;99.90;;;;;;5011016;28;20172;-77
2022/10/14 03:47:11;;;;;;;0.10;0.10;;;9.10;99.90;;;;;;5015300;28;20034;-77
2022/10/14 03:49:38;;;;;;;3.28;2.97;;;9.10;99.90;;;;;;5015493;28;20034;-78
2022/10/14 03:52:04;;;;;;;0.10;0.10;;;9.10;99.90;;;;;;5018032;28;20046;-78
2022/10/14 03:54:30;;;;;;;0.10;0.10;;;9.00;99.90;;;;;;5018860;28;20022;-78
2022/10/14 03:56:56;;;;;;;0.10;0.10;;;9.10;99.90;;;;;;5018670;28;20037;-77
2022/10/14 03:59:23;;;;;;;0.10;0.10;;;9.00;99.90;;;;;;5020210;28;20180;-77
2022/10/14 04:01:49;;;;;;;0.10;0.10;;;9.00;99.90;;;;;;5020305;28;20018;-78
2022/10/14 04:04:19;;;;;;;0.10;0.10;;;9.00;99.90;;;;;;5023191;28;20092;-77
2022/10/14 04:06:44;;;;;;;0.10;0.10;;;9.00;99.90;;;;;;5022125;28;20029;-77
2022/10/14 04:09:10;;;;;;;0.85;0.85;;;8.90;99.90;;;;;;5004985;28;20109;-77
2022/10/14 04:11:37;;;;;;;0.10;0.10;;;8.80;99.90;;;;;;5022063;28;20022;-77
2022/10/14 04:14:03;;;;;;;0.10;0.10;;;8.80;99.90;;;;;;5000330;28;20045;-77
2022/10/14 04:16:30;;;;;;;0.10;0.10;;;8.80;99.90;;;;;;5015035;28;20389;-78
2022/10/14 04:18:57;;;;;;;0.10;0.10;;;8.80;99.90;;;;;;5014086;28;20108;-77
2022/10/14 04:21:24;;;;;;;0.10;0.10;;;8.80;99.90;;;;;;5015056;28;20014;-77
2022/10/14 04:23:50;;;;;;;0.15;0.15;;;8.80;99.90;;;;;;5015076;28;20029;-77
2022/10/14 04:26:19;;;;;;;0.10;0.10;;;8.70;99.90;;;;;;5014827;28;20085;-77
2022/10/14 04:28:45;;;;;;;0.10;0.10;;;8.80;99.90;;;;;;5014152;28;20113;-77
2022/10/14 04:31:12;;;;;;;0.10;0.10;;;8.80;99.90;;;;;;4995723;28;20044;-77
2022/10/14 04:33:38;;;;;;;0.35;0.35;;;8.80;99.90;;;;;;5012695;28;20125;-77
2022/10/14 04:36:05;;;;;;;0.10;0.10;;;8.80;99.90;;;;;;4994652;28;20072;-78
2022/10/14 04:38:32;;;;;;;6.13;5.78;;;8.80;99.90;;;;;;5013672;28;20037;-77
2022/10/14 04:40:58;;;;;;;0.10;0.10;;;8.80;99.90;;;;;;5013219;28;20382;-77
2022/10/14 04:43:24;;;;;;;0.10;0.10;;;8.80;99.90;;;;;;4993231;28;20026;-77
2022/10/14 04:45:50;;;;;;;0.10;0.10;;;8.70;99.90;;;;;;5010884;28;20034;-78
2022/10/14 04:48:20;;;;;;;0.00;0.00;;;8.70;99.90;;;;;;4991636;28;20403;-79
2022/10/14 04:50:50;;;;;;;0.13;0.13;;;11.20;99.90;;;;;;5009009;28;20044;-77
2022/10/14 04:53:16;;;;;;;0.00;0.00;;;8.70;99.90;;;;;;4994885;28;20033;-78
2022/10/14 04:58:35;;;;;;;0.10;0.10;;;9.40;99.90;;;;;;4910897;29;20784;-77
2022/10/14 05:01:01;;;;;;;0.10;0.10;;;8.80;99.90;;;;;;4910540;29;20044;-78
2022/10/14 05:03:27;;;;;;;0.10;0.10;;;8.70;99.90;;;;;;4909544;29;20040;-78
2022/10/14 05:05:53;;;;;;;0.10;0.10;;;8.80;99.90;;;;;;4908701;29;20032;-78
2022/10/14 05:08:18;;;;;;;0.10;0.10;;;8.80;99.90;;;;;;4892310;29;20040;-77
2022/10/14 05:10:44;;;;;;;0.00;0.00;;;8.80;99.90;;;;;;4909385;29;20044;-77
2022/10/14 05:13:10;;;;;;;0.10;0.10;;;8.80;99.90;;;;;;4912646;29;20032;-78
2022/10/14 05:15:36;;;;;;;0.10;0.10;;;8.80;99.90;;;;;;4917111;29;20032;-78
2022/10/14 05:18:02;;;;;;;0.00;0.00;;;8.80;99.90;;;;;;4919223;29;20051;-78
2022/10/14 05:20:27;;;;;;;0.10;0.10;;;8.80;99.90;;;;;;4918223;29;20350;-78
2022/10/14 05:22:53;;;;;;;0.10;0.10;;;8.90;99.90;;;;;;4901996;29;20068;-78
2022/10/14 05:25:19;;;;;;;0.20;0.20;;;8.90;99.90;;;;;;4918782;29;20131;-78
2022/10/14 05:27:45;;;;;;;0.10;0.10;;;9.00;99.90;;;;;;4918847;29;20099;-78
2022/10/14 05:30:12;;;;;;;0.90;0.90;;;9.00;99.90;;;;;;4918969;29;20123;-78
2022/10/14 05:32:38;;;;;;;0.10;0.10;;;9.10;99.90;;;;;;4919758;29;20036;-78
2022/10/14 05:35:05;;;;;;;0.17;0.17;;;9.10;99.90;;;;;;4937788;28;20069;-77
2022/10/14 05:37:30;;;;;;;0.10;0.10;;;9.10;99.90;;;;;;4980623;28;20027;-78
2022/10/14 05:40:02;;;;;;;0.20;0.20;;;9.20;99.90;;;;;;4978289;28;20178;-78
2022/10/14 05:42:28;;;;;;;0.10;0.10;;;9.30;99.90;;;;;;4994640;28;20328;-78
2022/10/14 05:44:55;;;;;;;0.10;0.10;;;9.30;99.90;;;;;;4977252;28;20231;-78
2022/10/14 05:47:26;;;;;;;0.10;0.10;;;9.40;99.90;;;;;;4994876;28;20061;-78
2022/10/14 05:49:52;;;;;;;0.13;0.13;;;9.40;99.90;;;;;;4993788;28;20506;-78
2022/10/14 05:52:18;;;;;;;0.10;0.10;;;9.50;99.90;;;;;;4993745;28;20018;-78
2022/10/14 05:54:43;;;;;;;0.10;0.10;;;9.50;99.90;;;;;;4975781;28;20232;-78
2022/10/14 05:57:09;;;;;;;0.10;0.10;;;9.60;99.90;;;;;;4993294;28;20053;-78
2022/10/14 05:59:39;;;;;;;0.10;0.10;;;9.70;99.90;;;;;;4973863;28;20034;-77
2022/10/14 06:02:08;;;;;;;0.10;0.10;;;9.80;99.90;;;;;;4992539;28;20030;-78
2022/10/14 06:04:39;;;;;;;0.20;0.20;;;9.90;99.90;;;;;;4992046;28;20029;-78
2022/10/14 06:07:05;;;;;;;0.10;0.10;;;9.90;99.90;;;;;;5013476;23;20338;-78
2022/10/14 06:09:31;;;;;;;0.80;0.80;;;9.90;99.90;;;;;;4988763;28;20093;-82
2022/10/14 06:11:57;;;;;;;0.10;0.10;;;10.00;99.90;;;;;;5000151;28;20023;-78
2022/10/14 06:14:25;;;;;;;0.10;0.10;;;10.00;99.90;;;;;;5017020;28;20014;-79
2022/10/14 06:17:22;;;;;;;0.20;0.20;;;10.00;99.90;;;;;;5017273;28;20058;-78
2022/10/14 06:19:49;;;;;;;0.20;0.20;;;10.00;99.90;;;;;;5016248;28;20015;-79
2022/10/14 06:22:54;;;;;;;0.10;0.10;;;10.10;99.90;;;;;;5017156;28;20010;-77
2022/10/14 06:25:20;;;;;;;4.88;4.65;;;10.10;99.90;;;;;;4993819;28;20035;-77
2022/10/14 06:27:54;;;;;;;1.20;1.20;;;10.10;99.90;;;;;;4995707;28;20047;-78
2022/10/14 06:30:25;;;;;;;0.10;0.10;;;10.20;99.90;;;;;;4989992;28;20035;-77
2022/10/14 06:32:57;;;;;;;0.10;0.10;;;10.20;99.90;;;;;;4990507;28;20010;-77
2022/10/14 06:35:28;;;;;;;0.45;0.45;;;10.30;99.90;;;;;;4991292;28;20030;-78
2022/10/14 06:37:55;;;;;;;0.43;0.43;;;10.30;99.90;;;;;;4991380;28;20043;-78
2022/10/14 06:40:29;;;;;;;0.70;0.70;;;10.30;99.90;;;;;;4992769;28;20026;-77
2022/10/14 06:42:58;;;;;;;0.20;0.20;;;10.40;99.90;;;;;;4993058;28;20023;-78
2022/10/14 06:45:23;;;;;;;0.10;0.10;;;10.30;99.90;;;;;;4992080;28;20034;-82
2022/10/14 06:47:49;;;;;;;0.10;0.10;;;10.40;99.90;;;;;;4992083;28;20039;-78
2022/10/14 06:50:15;;;;;;;0.10;0.10;;;10.50;99.90;;;;;;4975948;28;20454;-79
2022/10/14 06:52:43;;;;;;;0.10;0.10;;;10.50;99.90;;;;;;4976035;28;20038;-82
2022/10/14 06:55:12;;;;;;;0.20;0.20;;;10.60;99.90;;;;;;4991969;28;20050;-77
2022/10/14 06:57:38;;;;;;;0.20;0.20;;;10.60;99.90;;;;;;4990535;28;20086;-77
2022/10/14 07:00:20;;;;;;;0.30;0.30;;;10.70;99.90;;;;;;4991522;28;20041;-77
2022/10/14 07:02:46;;;;;;;0.10;0.10;;;10.70;99.90;;;;;;4988973;28;20046;-79
2022/10/14 07:05:40;;;;;;;0.90;0.90;;;10.80;99.90;;;;;;4992721;28;20038;-84
2022/10/14 07:08:22;;;;;;;0.68;0.68;;;10.90;99.90;;;;;;4983575;28;20058;-77
2022/10/14 07:10:49;;;;;;;0.40;0.40;;;11.30;99.90;;;;;;4986700;28;20057;-79
2022/10/14 07:13:15;;;;;;;0.20;0.20;;;11.10;99.90;;;;;;4991677;28;20071;-77
2022/10/14 07:15:42;;;;;;;0.30;0.30;;;11.20;99.90;;;;;;4989706;28;20023;-78
2022/10/14 07:18:08;;;;;;;2.15;2.08;;;11.30;99.90;;;;;;4990111;28;20062;-77
2022/10/14 07:20:34;;;;;;;0.10;0.10;;;11.40;99.90;;;;;;4993928;28;20019;-78
2022/10/14 07:23:00;;;;;;;0.20;0.20;;;11.50;99.90;;;;;;4978914;28;20019;-78
2022/10/14 07:25:51;;;;;;;0.30;0.30;;;11.50;99.90;;;;;;4988932;28;20073;-83
2022/10/14 07:28:17;;;;;;;0.25;0.25;;;11.50;99.90;;;;;;4983005;28;20042;-78
2022/10/14 07:30:54;;;;;;;0.10;0.10;;;11.60;99.90;;;;;;4983398;28;20019;-77
2022/10/14 07:33:21;;;;;;;0.22;0.22;;;11.60;99.90;;;;;;4980527;28;20023;-79
2022/10/14 07:36:02;;;;;;;0.25;0.25;;;11.70;99.90;;;;;;4977334;28;20308;-79
2022/10/14 07:38:27;;;;;;;0.10;0.10;;;11.90;99.90;;;;;;4969758;28;20026;-85
2022/10/14 07:41:02;;;;;;;0.20;0.20;;;11.90;99.90;;;;;;4968704;28;20280;-81
2022/10/14 07:43:29;;;;;;;0.20;0.20;;;12.10;99.90;;;;;;4965631;28;20114;-89
2022/10/14 07:45:59;;;;;;;0.10;0.10;;;12.30;99.90;;;;;;4969163;28;20023;-81
2022/10/14 07:48:27;;;;;;;1.23;1.17;;;12.50;99.90;;;;;;4965078;28;20492;-87
2022/10/14 07:50:53;;;;;;;0.10;0.10;;;12.50;99.90;;;;;;4964372;28;20027;-88
2022/10/14 07:53:19;;;;;;;0.20;0.20;;;12.50;99.90;;;;;;4964514;28;20042;-78
2022/10/14 07:55:50;;;;;;;0.20;0.20;;;12.40;99.90;;;;;;4964389;28;20105;-84
2022/10/14 07:58:19;;;;;;;0.20;0.20;;;12.50;99.90;;;;;;4964496;28;20027;-84
2022/10/14 08:00:45;;;;;;;0.10;0.10;;;12.70;99.90;;;;;;4964653;28;20101;-84
2022/10/14 08:03:11;;;;;;;0.68;0.68;;;12.90;99.90;;;;;;4964315;28;20399;-93
2022/10/14 08:05:36;;;;;;;0.10;0.10;;;13.20;99.90;;;;;;4946690;28;20042;-93
2022/10/14 08:08:02;;;;;;;1.38;1.38;;;13.50;99.90;;;;;;4963833;28;20050;-82
2022/10/14 08:10:28;;;;;;;0.20;0.20;;;13.70;99.90;;;;;;4964356;28;20376;-79
2022/10/14 08:12:56;;;;;;;0.20;0.20;;;13.90;99.90;;;;;;4963574;28;20110;-82
2022/10/14 08:15:22;;;;;;;3.13;3.03;;;14.20;99.90;;;;;;4963927;28;20586;-83
2022/10/14 08:17:48;;;;;;;8.77;7.88;;;14.30;99.90;;;;;;4948891;28;20035;-85
2022/10/14 08:20:13;;;;;;;0.47;0.47;;;14.60;99.90;;;;;;4966934;28;20101;-78
2022/10/14 08:22:39;;;;;;;0.63;0.63;;;14.80;99.90;;;;;;4964224;28;20421;-90
2022/10/14 08:25:05;;;;;;;0.73;0.73;;;14.90;99.90;;;;;;4946270;28;20019;-82
2022/10/14 08:27:31;;;;;;;0.45;0.45;;;15.00;99.90;;;;;;4963286;28;20045;-84
2022/10/14 08:29:57;;;;;;;0.10;0.10;;;15.20;99.90;;;;;;4965737;28;20347;-81
2022/10/14 08:32:23;;;;;;;0.20;0.20;;;15.30;99.90;;;;;;4970422;28;20433;-84
2022/10/14 08:34:48;;;;;;;0.65;0.65;;;15.20;99.90;;;;;;4963978;28;20023;-85
2022/10/14 08:37:14;;;;;;;1.15;1.15;;;15.30;99.90;;;;;;4965026;28;20128;-90
2022/10/14 08:39:40;;;;;;;0.10;0.10;;;15.40;99.90;;;;;;4946958;28;20065;-86
2022/10/14 08:42:32;;;;;;;0.20;0.20;;;15.40;99.90;;;;;;4964865;28;20023;-87
2022/10/14 08:45:07;;;;;;;0.50;0.50;;;15.50;99.90;;;;;;4944855;28;20213;-85
2022/10/14 08:47:38;;;;;;;1.92;1.75;;;15.40;99.90;;;;;;4962967;28;20085;-80
2022/10/14 08:50:16;;;;;;;0.13;0.13;;;15.30;99.90;;;;;;4964474;28;20145;-81
2022/10/14 08:53:06;;;;;;;5.40;3.20;;;15.20;99.90;;;;;;4963231;28;20636;-80
2022/10/14 08:55:39;;;;;;;1.15;1.15;;;15.20;99.90;;;;;;4963679;28;20023;-85
2022/10/14 08:58:16;;;;;;;2.15;2.05;;;15.20;99.90;;;;;;4963223;28;20574;-80
2022/10/14 09:00:46;;;;;;;0.10;0.10;;;15.20;99.90;;;;;;4964038;28;20755;-83
2022/10/14 09:03:41;;;;;;;0.38;0.38;;;15.30;99.90;;;;;;4963600;28;20476;-81
2022/10/14 09:06:34;;;;;;;1.13;1.13;;;15.30;99.90;;;;;;4910014;29;20323;-92
2022/10/14 09:09:09;;;;;;;0.20;0.20;;;15.30;99.90;;;;;;4886490;29;20025;-81
2022/10/14 09:11:40;;;;;;;0.70;0.70;;;15.30;99.90;;;;;;4902049;29;20104;-83
2022/10/14 09:14:08;;;;;;;0.20;0.20;;;15.30;99.90;;;;;;4902778;29;20032;-85
2022/10/14 09:16:37;;;;;;;2.58;2.40;;;15.40;99.90;;;;;;4904371;29;20440;-78
2022/10/14 09:19:13;;;;;;;0.10;0.10;;;15.40;99.90;;;;;;4905680;29;20159;-82
2022/10/14 09:21:47;;;;;;;0.15;0.15;;;15.40;99.90;;;;;;4905906;29;20325;-84
2022/10/14 09:24:17;;;;;;;2.70;2.58;;;15.50;99.90;;;;;;4906474;29;20046;-78
2022/10/14 09:26:46;;;;;;;0.20;0.20;;;15.60;99.90;;;;;;4904600;29;20040;-79
2022/10/14 09:29:32;;;;;;;0.10;0.10;;;15.70;99.90;;;;;;4904228;29;20036;-78
2022/10/14 09:32:08;;;;;;;1.60;1.50;;;15.80;99.90;;;;;;4888137;29;20028;-78
2022/10/14 09:34:41;;;;;;;0.10;0.10;;;15.80;99.90;;;;;;4903234;29;20111;-81
2022/10/14 09:37:31;;;;;;;0.10;0.10;;;16.00;99.90;;;;;;4903032;29;20115;-83
2022/10/14 09:40:25;;;;;;;1.45;1.38;;;16.00;99.90;;;;;;4904348;29;20087;-92
2022/10/14 09:43:06;;;;;;;0.28;0.28;;;16.00;99.90;;;;;;4942440;28;20509;-78
2022/10/14 09:45:46;;;;;;;0.15;0.15;;;16.00;99.90;;;;;;4967571;28;20085;-77
2022/10/14 09:48:47;;;;;;;0.32;0.32;;;16.00;99.90;;;;;;4950009;28;20046;-78
2022/10/14 09:51:33;;;;;;;0.20;0.20;;;16.00;99.90;;;;;;4953451;28;20421;-79
2022/10/14 09:54:01;;;;;;;0.73;0.73;;;16.00;99.90;;;;;;4969022;28;20031;-81
2022/10/14 09:56:38;;;;;;;1.65;1.58;;;16.10;99.90;;;;;;4972855;28;20018;-78
2022/10/14 09:59:31;;;;;;;1.05;1.05;;;16.10;99.90;;;;;;4957838;28;20329;-83
2022/10/14 10:02:00;;;;;;;0.50;0.50;;;16.10;99.90;;;;;;4975301;28;20023;-82
2022/10/14 10:04:40;;;;;;;1.38;1.33;;;16.20;99.90;;;;;;4973950;28;20026;-83
2022/10/14 10:07:21;;;;;;;0.90;0.90;;;16.60;99.90;;;;;;4970419;28;20043;-90
2022/10/14 10:09:54;;;;;;;3.72;2.95;;;16.20;99.90;;;;;;4966301;28;20027;-77
2022/10/14 10:12:28;;;;;;;3.28;3.08;;;16.30;99.90;;;;;;4961587;28;20038;-77
2022/10/14 10:15:03;;;;;;;0.25;0.25;;;16.50;99.90;;;;;;4960616;28;20026;-78
2022/10/14 10:17:34;;;;;;;3.63;2.30;;;16.60;99.90;;;;;;4960843;28;20027;-82
2022/10/14 10:20:19;;;;;;;2.25;2.15;;;16.80;99.90;;;;;;4962554;28;20057;-82
2022/10/14 10:22:45;;;;;;;0.73;0.73;;;17.10;99.90;;;;;;4961609;28;20502;-78
2022/10/14 10:25:11;;;;;;;1.38;1.30;;;17.30;99.90;;;;;;4962792;28;20019;-89
2022/10/14 10:27:44;;;;;;;0.10;0.10;;;17.50;99.90;;;;;;4966810;28;20367;-87
2022/10/14 10:30:28;;;;;;;1.92;1.83;;;17.80;99.90;;;;;;4961811;28;20031;-83
2022/10/14 10:33:27;;;;;;;1.55;1.45;;;17.80;99.90;;;;;;4964925;28;20260;-80
2022/10/14 10:36:17;;;;;;;0.57;0.57;;;17.80;99.90;;;;;;4967909;28;20151;-77
2022/10/14 10:38:53;;;;;;;0.25;0.25;;;17.60;99.90;;;;;;4964798;28;20031;-85
2022/10/14 10:41:31;;;;;;;9.75;2.28;;;17.70;99.90;;;;;;4965090;28;20023;-84
2022/10/14 10:44:21;;;;;;;0.38;0.38;;;17.70;99.90;;;;;;4964319;28;20246;-85
2022/10/14 10:47:11;;;;;;;0.80;0.80;;;17.90;99.90;;;;;;4968812;28;20605;-82
2022/10/14 10:50:08;;;;;;;1.15;1.15;;;17.80;99.90;;;;;;4970133;28;20027;-80
2022/10/14 10:52:53;;;;;;;2.92;2.72;;;17.90;99.90;;;;;;4974894;28;20053;-81
2022/10/14 10:55:44;;;;;;;0.57;0.57;;;18.00;99.90;;;;;;4974231;28;20042;-87
2022/10/14 10:58:17;;;;;;;1.33;1.30;;;17.70;99.90;;;;;;4969807;28;20285;-80
2022/10/14 11:01:25;;;;;;;0.80;0.80;;;19.90;99.90;;;;;;4966195;28;20244;-78
2022/10/14 11:04:05;;;;;;;0.38;0.38;;;18.30;99.90;;;;;;4964226;28;20515;-81
2022/10/14 11:12:54;;;;;;;2.65;1.65;;;19.10;99.90;;;;;;4965365;28;20094;-77
2022/10/14 11:15:32;;;;;;;2.83;1.60;;;19.10;99.90;;;;;;4964927;28;20026;-82
2022/10/14 11:18:13;;;;;;;1.40;1.05;;;19.80;99.90;;;;;;4966070;28;20126;-79
2022/10/14 11:20:42;;;;;;;0.20;0.20;;;20.30;99.90;;;;;;4964376;28;20019;-82
2022/10/14 11:23:36;;;;;;;2.63;2.05;;;20.60;99.90;;;;;;4964490;28;20561;-77
2022/10/14 11:26:22;;;;;;;1.75;1.70;;;20.40;99.90;;;;;;4948601;28;20656;-77
2022/10/14 11:29:03;;;;;;;0.43;0.43;;;19.90;99.90;;;;;;4890128;29;20028;-81
2022/10/14 11:31:52;;;;;;;4.63;4.20;;;19.60;99.90;;;;;;4907665;29;20432;-77
2022/10/14 11:34:33;;;;;;;2.65;2.20;;;19.40;99.90;;;;;;4868233;29;20232;-80
2022/10/14 11:37:12;;;;;;;1.33;1.25;;;19.10;99.90;;;;;;4852762;29;20044;-79
2022/10/14 11:39:46;;;;;;;0.20;0.20;;;19.00;99.90;;;;;;4852164;29;20063;-77
2022/10/14 11:42:23;;;;;;;0.30;0.30;;;18.80;99.90;;;;;;4867720;29;20056;-78
2022/10/14 11:45:00;;;;;;;0.45;0.45;;;18.90;99.90;;;;;;4867996;29;20387;-77
2022/10/14 11:47:31;;;;;;;0.50;0.50;;;19.20;99.90;;;;;;4865492;29;20419;-83
2022/10/14 11:50:14;;;;;;;3.05;2.80;;;19.30;99.90;;;;;;4864789;29;20108;-80
2022/10/14 11:52:47;;;;;;;1.48;1.38;;;18.90;99.90;;;;;;4849341;29;20063;-83
2022/10/14 11:55:22;;;;;;;1.90;1.80;;;18.70;99.90;;;;;;4865022;29;20111;-78
2022/10/14 11:57:52;;;;;;;0.35;0.35;;;18.30;99.90;;;;;;4866969;29;20089;-86
2022/10/14 12:03:53;;;;;;;1.38;1.10;;;18.60;99.90;;;;;;4867235;29;20051;-84
2022/10/14 12:06:27;;;;;;;1.27;1.27;;;19.20;99.90;;;;;;4878599;29;20044;-85
2022/10/14 12:09:16;;;;;;;0.40;0.35;;;18.50;99.90;;;;;;4885606;29;20066;-83
2022/10/14 12:12:04;;;;;;;1.95;1.85;;;18.40;99.90;;;;;;4892783;29;20297;-86
2022/10/14 12:14:37;;;;;;;5.00;4.43;;;20.60;99.90;;;;;;4907292;29;20040;-82
2022/10/14 12:17:06;;;;;;;1.85;1.75;;;18.20;99.90;;;;;;4905444;29;20054;-77
2022/10/14 12:19:32;;;;;;;0.65;0.65;;;18.30;99.90;;;;;;4907169;29;20027;-89
2022/10/14 12:22:15;;;;;;;1.40;1.40;;;18.40;99.90;;;;;;4904717;29;20547;-83
2022/10/14 12:24:51;;;;;;;0.73;0.73;;;18.40;99.90;;;;;;4904119;29;20422;-82
2022/10/14 12:27:18;;;;;;;0.10;0.10;;;18.60;99.90;;;;;;4904791;29;20304;-76
2022/10/14 12:29:50;;;;;;;0.20;0.20;;;18.50;99.90;;;;;;4903677;29;20040;-87
2022/10/14 12:32:15;;;;;;;1.38;1.35;;;18.50;99.90;;;;;;4888842;29;20210;-85
2022/10/14 12:34:43;;;;;;;1.63;1.52;;;18.40;99.90;;;;;;4906981;29;20528;-80
2022/10/14 12:37:33;;;;;;;1.05;1.02;;;18.30;99.90;;;;;;4906582;29;20047;-78
2022/10/14 12:40:05;;;;;;;0.38;0.38;;;18.30;99.90;;;;;;4906052;29;20030;-83
2022/10/14 12:42:57;;;;;;;0.22;0.22;;;18.30;99.90;;;;;;4889396;29;20047;-90
2022/10/14 12:45:25;;;;;;;0.20;0.20;;;18.30;99.90;;;;;;4902516;29;20428;-77
2022/10/14 12:48:15;;;;;;;0.38;0.38;;;18.30;99.90;;;;;;4911090;28;20543;-82
2022/10/14 12:50:42;;;;;;;0.38;0.38;;;18.30;99.90;;;;;;4963595;28;20062;-90
2022/10/14 12:54:04;;;;;;;0.38;0.38;;;18.40;99.90;;;;;;4963403;28;20654;-85
2022/10/14 12:56:37;;;;;;;0.20;0.20;;;18.30;99.90;;;;;;4964381;28;20498;-90
2022/10/14 12:59:07;;;;;;;1.55;1.45;;;18.20;99.90;;;;;;4947941;28;20070;-81
2022/10/14 13:01:34;;;;;;;0.10;0.10;;;18.20;99.90;;;;;;4964759;28;20034;-83
2022/10/14 13:04:03;;;;;;;0.88;0.85;;;17.40;99.90;;;;;;4963502;28;20031;-83
2022/10/14 13:06:38;;;;;;;4.18;3.80;;;18.10;99.90;;;;;;4963157;28;20255;-82
2022/10/14 13:09:10;;;;;;;0.22;0.22;;;17.80;99.90;;;;;;4963529;28;20037;-83
2022/10/14 13:11:37;;;;;;;1.77;1.75;;;17.90;99.90;;;;;;4963106;28;20368;-80
2022/10/14 13:14:22;;;;;;;0.30;0.30;;;18.00;99.90;;;;;;4963029;28;20146;-78
2022/10/14 13:16:51;;;;;;;3.97;1.58;;;18.10;99.90;;;;;;4945709;28;20473;-88
2022/10/14 13:19:32;;;;;;;0.10;0.10;;;18.20;99.90;;;;;;4968853;28;20023;-83
2022/10/14 13:21:58;;;;;;;0.68;0.68;;;18.10;99.90;;;;;;4964268;28;20107;-86
2022/10/14 13:24:32;;;;;;;0.47;0.47;;;18.10;99.90;;;;;;4967229;28;20047;-86
2022/10/14 13:27:07;;;;;;;1.30;1.30;;;18.10;99.90;;;;;;4966962;28;20329;-88
2022/10/14 13:30:17;;;;;;;1.77;1.65;;;18.00;99.90;;;;;;4964701;28;20117;-83
2022/10/14 13:32:46;;;;;;;0.95;0.95;;;18.10;99.90;;;;;;4905564;29;20044;-82